sensor_id;sensor_type;location;lat;lon;timestamp;temperature;humidity
70826;SHT31;58446;41.490;22.098;2023-04-02T00:08:58;12.27;61.71
70826;SHT31;58446;41.490;22.098;2023-04-02T00:11:37;12.27;62.24
70826;SHT31;58446;41.490;22.098;2023-04-02T00:14:11;12.34;61.97
70826;SHT31;58446;41.490;22.098;2023-04-02T00:16:37;12.73;60.92
70826;SHT31;58446;41.490;22.098;2023-04-02T00:19:06;13.07;59.79
70826;SHT31;58446;41.490;22.098;2023-04-02T00:21:36;13.28;59.09
70826;SHT31;58446;41.490;22.098;2023-04-02T00:24:12;13.24;59.10
70826;SHT31;58446;41.490;22.098;2023-04-02T00:26:46;13.14;59.32
70826;SHT31;58446;41.490;22.098;2023-04-02T00:29:14;12.60;60.86
70826;SHT31;58446;41.490;22.098;2023-04-02T00:31:43;11.78;63.51
70826;SHT31;58446;41.490;22.098;2023-04-02T00:34:17;11.01;65.82
70826;SHT31;58446;41.490;22.098;2023-04-02T00:36:45;11.25;65.98
70826;SHT31;58446;41.490;22.098;2023-04-02T00:39:25;12.07;63.13
70826;SHT31;58446;41.490;22.098;2023-04-02T00:41:55;12.49;61.61
70826;SHT31;58446;41.490;22.098;2023-04-02T00:44:36;12.77;60.67
70826;SHT31;58446;41.490;22.098;2023-04-02T00:47:36;12.70;60.67
70826;SHT31;58446;41.490;22.098;2023-04-02T00:52:30;12.80;60.46
70826;SHT31;58446;41.490;22.098;2023-04-02T00:55:05;12.87;59.86
70826;SHT31;58446;41.490;22.098;2023-04-02T00:57:32;12.97;59.68
70826;SHT31;58446;41.490;22.098;2023-04-02T01:02:42;12.85;59.85
70826;SHT31;58446;41.490;22.098;2023-04-02T01:12:57;12.77;60.03
70826;SHT31;58446;41.490;22.098;2023-04-02T01:15:39;12.95;59.64
70826;SHT31;58446;41.490;22.098;2023-04-02T01:18:18;12.90;59.66
70826;SHT31;58446;41.490;22.098;2023-04-02T01:20:58;12.85;59.71
70826;SHT31;58446;41.490;22.098;2023-04-02T01:23:43;12.79;59.82
70826;SHT31;58446;41.490;22.098;2023-04-02T01:29:09;12.66;60.38
70826;SHT31;58446;41.490;22.098;2023-04-02T01:31:37;12.65;60.38
70826;SHT31;58446;41.490;22.098;2023-04-02T01:34:10;12.70;60.27
70826;SHT31;58446;41.490;22.098;2023-04-02T01:44:27;13.13;58.92
70826;SHT31;58446;41.490;22.098;2023-04-02T01:46:54;13.04;59.11
70826;SHT31;58446;41.490;22.098;2023-04-02T01:49:23;12.80;59.88
70826;SHT31;58446;41.490;22.098;2023-04-02T01:51:51;12.76;60.44
70826;SHT31;58446;41.490;22.098;2023-04-02T01:54:19;12.83;60.09
70826;SHT31;58446;41.490;22.098;2023-04-02T01:56:46;12.87;59.82
70826;SHT31;58446;41.490;22.098;2023-04-02T01:59:13;12.82;60.09
70826;SHT31;58446;41.490;22.098;2023-04-02T02:02:12;12.72;60.38
70826;SHT31;58446;41.490;22.098;2023-04-02T02:04:39;12.75;60.33
70826;SHT31;58446;41.490;22.098;2023-04-02T02:07:12;12.77;60.32
70826;SHT31;58446;41.490;22.098;2023-04-02T02:09:39;12.85;60.09
70826;SHT31;58446;41.490;22.098;2023-04-02T02:12:05;13.00;59.70
70826;SHT31;58446;41.490;22.098;2023-04-02T02:14:31;13.11;59.27
70826;SHT31;58446;41.490;22.098;2023-04-02T02:16:59;13.02;59.60
70826;SHT31;58446;41.490;22.098;2023-04-02T02:19:38;12.89;60.13
70826;SHT31;58446;41.490;22.098;2023-04-02T02:22:34;12.39;61.77
70826;SHT31;58446;41.490;22.098;2023-04-02T02:25:05;11.50;64.56
70826;SHT31;58446;41.490;22.098;2023-04-02T02:30:42;10.71;67.29
70826;SHT31;58446;41.490;22.098;2023-04-02T02:33:30;11.22;66.09
70826;SHT31;58446;41.490;22.098;2023-04-02T02:36:03;10.88;66.77
70826;SHT31;58446;41.490;22.098;2023-04-02T02:41:34;10.09;69.61
70826;SHT31;58446;41.490;22.098;2023-04-02T02:44:09;9.90;70.36
70826;SHT31;58446;41.490;22.098;2023-04-02T02:46:49;9.69;71.17
70826;SHT31;58446;41.490;22.098;2023-04-02T02:49:20;9.76;71.33
70826;SHT31;58446;41.490;22.098;2023-04-02T02:54:41;10.38;69.56
70826;SHT31;58446;41.490;22.098;2023-04-02T02:57:11;11.15;66.91
70826;SHT31;58446;41.490;22.098;2023-04-02T02:59:38;11.53;65.35
70826;SHT31;58446;41.490;22.098;2023-04-02T03:02:05;11.86;64.31
70826;SHT31;58446;41.490;22.098;2023-04-02T03:04:34;12.05;63.47
70826;SHT31;58446;41.490;22.098;2023-04-02T03:07:01;12.21;62.66
70826;SHT31;58446;41.490;22.098;2023-04-02T03:09:32;12.31;62.47
70826;SHT31;58446;41.490;22.098;2023-04-02T03:15:05;12.15;62.73
70826;SHT31;58446;41.490;22.098;2023-04-02T03:17:47;12.15;62.66
70826;SHT31;58446;41.490;22.098;2023-04-02T03:23:04;12.24;62.46
70826;SHT31;58446;41.490;22.098;2023-04-02T03:25:38;12.22;62.32
70826;SHT31;58446;41.490;22.098;2023-04-02T03:28:12;11.98;62.95
70826;SHT31;58446;41.490;22.098;2023-04-02T03:30:52;12.18;62.49
70826;SHT31;58446;41.490;22.098;2023-04-02T03:33:34;12.25;62.35
70826;SHT31;58446;41.490;22.098;2023-04-02T03:36:27;12.13;62.67
70826;SHT31;58446;41.490;22.098;2023-04-02T03:39:15;12.11;62.57
70826;SHT31;58446;41.490;22.098;2023-04-02T03:41:46;12.29;61.83
70826;SHT31;58446;41.490;22.098;2023-04-02T03:44:27;12.24;62.02
70826;SHT31;58446;41.490;22.098;2023-04-02T03:46:57;12.08;62.40
70826;SHT31;58446;41.490;22.098;2023-04-02T03:49:28;12.04;62.59
70826;SHT31;58446;41.490;22.098;2023-04-02T03:54:30;11.93;62.92
70826;SHT31;58446;41.490;22.098;2023-04-02T03:56:57;11.88;63.04
70826;SHT31;58446;41.490;22.098;2023-04-02T03:59:40;11.83;63.32
70826;SHT31;58446;41.490;22.098;2023-04-02T04:04:59;11.83;63.28
70826;SHT31;58446;41.490;22.098;2023-04-02T04:07:35;11.80;63.37
70826;SHT31;58446;41.490;22.098;2023-04-02T04:10:05;11.78;63.43
70826;SHT31;58446;41.490;22.098;2023-04-02T04:12:46;11.74;63.58
70826;SHT31;58446;41.490;22.098;2023-04-02T04:15:29;11.74;63.67
70826;SHT31;58446;41.490;22.098;2023-04-02T04:20:52;11.80;63.41
70826;SHT31;58446;41.490;22.098;2023-04-02T04:23:30;11.77;63.53
70826;SHT31;58446;41.490;22.098;2023-04-02T04:26:00;11.91;63.22
70826;SHT31;58446;41.490;22.098;2023-04-02T04:28:41;11.77;63.61
70826;SHT31;58446;41.490;22.098;2023-04-02T04:31:36;11.76;63.63
70826;SHT31;58446;41.490;22.098;2023-04-02T04:34:13;11.84;63.52
70826;SHT31;58446;41.490;22.098;2023-04-02T04:36:47;11.80;63.65
70826;SHT31;58446;41.490;22.098;2023-04-02T04:39:43;11.73;64.01
70826;SHT31;58446;41.490;22.098;2023-04-02T04:42:36;11.88;63.22
70826;SHT31;58446;41.490;22.098;2023-04-02T04:47:48;12.08;62.82
70826;SHT31;58446;41.490;22.098;2023-04-02T04:52:54;11.53;64.28
70826;SHT31;58446;41.490;22.098;2023-04-02T04:55:28;11.65;63.94
70826;SHT31;58446;41.490;22.098;2023-04-02T04:58:02;11.33;64.91
70826;SHT31;58446;41.490;22.098;2023-04-02T05:00:41;11.09;65.84
70826;SHT31;58446;41.490;22.098;2023-04-02T05:03:23;11.29;65.31
70826;SHT31;58446;41.490;22.098;2023-04-02T05:05:50;11.66;64.19
70826;SHT31;58446;41.490;22.098;2023-04-02T05:08:23;11.95;63.35
70826;SHT31;58446;41.490;22.098;2023-04-02T05:10:56;11.98;63.21
70826;SHT31;58446;41.490;22.098;2023-04-02T05:13:35;12.05;62.97
70826;SHT31;58446;41.490;22.098;2023-04-02T05:16:25;12.05;63.02
70826;SHT31;58446;41.490;22.098;2023-04-02T05:20:10;11.99;63.19
70826;SHT31;58446;41.490;22.098;2023-04-02T05:25:09;12.20;62.85
70826;SHT31;58446;41.490;22.098;2023-04-02T05:32:59;12.13;63.09
70826;SHT31;58446;41.490;22.098;2023-04-02T05:35:30;12.11;63.20
70826;SHT31;58446;41.490;22.098;2023-04-02T05:37:59;11.95;64.13
70826;SHT31;58446;41.490;22.098;2023-04-02T05:40:45;11.87;64.20
70826;SHT31;58446;41.490;22.098;2023-04-02T05:43:16;11.74;64.75
70826;SHT31;58446;41.490;22.098;2023-04-02T05:45:50;11.37;66.47
70826;SHT31;58446;41.490;22.098;2023-04-02T05:48:20;11.50;65.63
70826;SHT31;58446;41.490;22.098;2023-04-02T05:50:49;11.71;64.98
70826;SHT31;58446;41.490;22.098;2023-04-02T05:53:33;11.77;64.79
70826;SHT31;58446;41.490;22.098;2023-04-02T05:56:02;12.10;63.73
70826;SHT31;58446;41.490;22.098;2023-04-02T05:58:59;12.15;63.58
70826;SHT31;58446;41.490;22.098;2023-04-02T06:01:39;12.18;63.39
70826;SHT31;58446;41.490;22.098;2023-04-02T06:04:12;12.35;62.88
70826;SHT31;58446;41.490;22.098;2023-04-02T06:09:35;12.21;64.18
70826;SHT31;58446;41.490;22.098;2023-04-02T06:12:44;12.20;63.83
70826;SHT31;58446;41.490;22.098;2023-04-02T06:15:13;12.39;63.56
70826;SHT31;58446;41.490;22.098;2023-04-02T06:18:00;12.68;62.16
70826;SHT31;58446;41.490;22.098;2023-04-02T06:20:29;12.89;62.49
70826;SHT31;58446;41.490;22.098;2023-04-02T06:23:02;13.16;62.10
70826;SHT31;58446;41.490;22.098;2023-04-02T06:25:37;13.26;61.85
70826;SHT31;58446;41.490;22.098;2023-04-02T06:28:07;13.16;61.80
70826;SHT31;58446;41.490;22.098;2023-04-02T06:30:37;13.06;61.67
70826;SHT31;58446;41.490;22.098;2023-04-02T06:33:05;13.10;62.74
70826;SHT31;58446;41.490;22.098;2023-04-02T06:35:34;13.17;62.81
70826;SHT31;58446;41.490;22.098;2023-04-02T06:38:03;13.30;63.00
70826;SHT31;58446;41.490;22.098;2023-04-02T06:40:40;13.62;61.31
70826;SHT31;58446;41.490;22.098;2023-04-02T06:46:07;13.83;59.37
70826;SHT31;58446;41.490;22.098;2023-04-02T06:48:36;13.90;61.69
70826;SHT31;58446;41.490;22.098;2023-04-02T06:51:06;13.96;61.32
70826;SHT31;58446;41.490;22.098;2023-04-02T06:53:38;14.29;60.86
70826;SHT31;58446;41.490;22.098;2023-04-02T06:56:24;14.66;59.41
70826;SHT31;58446;41.490;22.098;2023-04-02T06:58:52;15.01;58.26
70826;SHT31;58446;41.490;22.098;2023-04-02T07:01:22;15.38;58.19
70826;SHT31;58446;41.490;22.098;2023-04-02T07:03:48;15.58;56.96
70826;SHT31;58446;41.490;22.098;2023-04-02T07:06:16;15.55;55.83
70826;SHT31;58446;41.490;22.098;2023-04-02T07:08:42;15.48;56.22
70826;SHT31;58446;41.490;22.098;2023-04-02T07:11:13;15.65;55.69
70826;SHT31;58446;41.490;22.098;2023-04-02T07:13:39;15.67;56.88
70826;SHT31;58446;41.490;22.098;2023-04-02T07:16:05;15.70;56.53
70826;SHT31;58446;41.490;22.098;2023-04-02T07:18:32;15.65;54.55
70826;SHT31;58446;41.490;22.098;2023-04-02T07:20:58;15.39;55.08
70826;SHT31;58446;41.490;22.098;2023-04-02T07:23:25;15.17;56.12
70826;SHT31;58446;41.490;22.098;2023-04-02T07:25:55;15.15;57.37
70826;SHT31;58446;41.490;22.098;2023-04-02T07:28:21;15.17;57.78
70826;SHT31;58446;41.490;22.098;2023-04-02T07:30:47;15.28;55.72
70826;SHT31;58446;41.490;22.098;2023-04-02T07:33:15;15.34;55.81
70826;SHT31;58446;41.490;22.098;2023-04-02T07:35:41;15.49;57.19
70826;SHT31;58446;41.490;22.098;2023-04-02T07:38:07;15.71;56.09
70826;SHT31;58446;41.490;22.098;2023-04-02T07:40:33;15.94;55.59
70826;SHT31;58446;41.490;22.098;2023-04-02T07:42:58;16.11;54.94
70826;SHT31;58446;41.490;22.098;2023-04-02T07:45:25;16.31;54.27
70826;SHT31;58446;41.490;22.098;2023-04-02T07:47:51;16.55;52.79
70826;SHT31;58446;41.490;22.098;2023-04-02T07:50:16;16.71;53.29
70826;SHT31;58446;41.490;22.098;2023-04-02T07:52:42;16.98;51.68
70826;SHT31;58446;41.490;22.098;2023-04-02T07:55:12;17.19;51.33
70826;SHT31;58446;41.490;22.098;2023-04-02T07:57:40;17.37;49.52
70826;SHT31;58446;41.490;22.098;2023-04-02T08:00:09;17.38;49.20
70826;SHT31;58446;41.490;22.098;2023-04-02T08:02:36;17.43;49.75
70826;SHT31;58446;41.490;22.098;2023-04-02T08:05:02;17.57;49.94
70826;SHT31;58446;41.490;22.098;2023-04-02T08:07:27;17.81;49.70
70826;SHT31;58446;41.490;22.098;2023-04-02T08:09:53;17.85;48.87
70826;SHT31;58446;41.490;22.098;2023-04-02T08:12:18;18.05;49.80
70826;SHT31;58446;41.490;22.098;2023-04-02T08:14:44;18.06;48.36
70826;SHT31;58446;41.490;22.098;2023-04-02T08:17:10;18.05;49.27
70826;SHT31;58446;41.490;22.098;2023-04-02T08:19:35;17.97;48.41
70826;SHT31;58446;41.490;22.098;2023-04-02T08:22:01;17.95;48.76
70826;SHT31;58446;41.490;22.098;2023-04-02T08:24:27;17.70;49.05
70826;SHT31;58446;41.490;22.098;2023-04-02T08:26:53;17.70;48.70
70826;SHT31;58446;41.490;22.098;2023-04-02T08:29:20;17.58;48.82
70826;SHT31;58446;41.490;22.098;2023-04-02T08:31:45;17.53;48.91
70826;SHT31;58446;41.490;22.098;2023-04-02T08:34:11;17.34;49.34
70826;SHT31;58446;41.490;22.098;2023-04-02T08:36:38;17.46;48.50
70826;SHT31;58446;41.490;22.098;2023-04-02T08:39:06;17.44;48.37
70826;SHT31;58446;41.490;22.098;2023-04-02T08:41:57;17.30;49.12
70826;SHT31;58446;41.490;22.098;2023-04-02T08:44:28;16.83;49.78
70826;SHT31;58446;41.490;22.098;2023-04-02T08:47:02;16.71;50.66
70826;SHT31;58446;41.490;22.098;2023-04-02T08:49:34;16.83;51.06
70826;SHT31;58446;41.490;22.098;2023-04-02T08:52:01;16.99;49.91
70826;SHT31;58446;41.490;22.098;2023-04-02T08:54:29;17.02;49.74
70826;SHT31;58446;41.490;22.098;2023-04-02T08:57:46;17.07;50.75
70826;SHT31;58446;41.490;22.098;2023-04-02T08:59:46;17.10;50.07
70826;SHT31;58446;41.490;22.098;2023-04-02T09:04:40;17.40;48.95
70826;SHT31;58446;41.490;22.098;2023-04-02T09:07:11;17.41;48.72
70826;SHT31;58446;41.490;22.098;2023-04-02T09:09:38;17.47;48.86
70826;SHT31;58446;41.490;22.098;2023-04-02T09:12:10;17.60;48.33
70826;SHT31;58446;41.490;22.098;2023-04-02T09:17:23;17.94;48.01
70826;SHT31;58446;41.490;22.098;2023-04-02T09:19:56;18.16;47.86
70826;SHT31;58446;41.490;22.098;2023-04-02T09:22:26;18.26;46.89
70826;SHT31;58446;41.490;22.098;2023-04-02T09:24:58;18.15;46.37
70826;SHT31;58446;41.490;22.098;2023-04-02T09:27:29;17.63;47.03
70826;SHT31;58446;41.490;22.098;2023-04-02T09:30:02;17.61;47.96
70826;SHT31;58446;41.490;22.098;2023-04-02T09:32:50;18.04;47.63
70826;SHT31;58446;41.490;22.098;2023-04-02T09:35:19;17.89;45.83
70826;SHT31;58446;41.490;22.098;2023-04-02T09:37:45;17.41;46.02
70826;SHT31;58446;41.490;22.098;2023-04-02T09:42:47;17.75;44.88
70826;SHT31;58446;41.490;22.098;2023-04-02T09:45:20;17.95;45.09
70826;SHT31;58446;41.490;22.098;2023-04-02T09:47:46;18.26;44.94
70826;SHT31;58446;41.490;22.098;2023-04-02T09:52:48;18.52;44.68
70826;SHT31;58446;41.490;22.098;2023-04-02T09:57:40;18.87;44.43
70826;SHT31;58446;41.490;22.098;2023-04-02T10:00:15;19.06;43.98
70826;SHT31;58446;41.490;22.098;2023-04-02T10:02:45;18.98;44.73
70826;SHT31;58446;41.490;22.098;2023-04-02T10:05:18;19.18;44.85
70826;SHT31;58446;41.490;22.098;2023-04-02T10:07:47;19.36;45.39
70826;SHT31;58446;41.490;22.098;2023-04-02T10:15:52;19.00;45.79
70826;SHT31;58446;41.490;22.098;2023-04-02T10:21:05;19.87;44.53
70826;SHT31;58446;41.490;22.098;2023-04-02T10:23:31;20.03;42.36
70826;SHT31;58446;41.490;22.098;2023-04-02T10:29:03;19.96;42.88
70826;SHT31;58446;41.490;22.098;2023-04-02T10:34:33;19.27;42.60
70826;SHT31;58446;41.490;22.098;2023-04-02T10:40:26;19.48;41.58
70826;SHT31;58446;41.490;22.098;2023-04-02T10:53:46;19.47;41.09
70826;SHT31;58446;41.490;22.098;2023-04-02T10:56:13;19.32;41.08
70826;SHT31;58446;41.490;22.098;2023-04-02T10:59:14;19.24;41.02
70826;SHT31;58446;41.490;22.098;2023-04-02T11:01:42;19.04;41.60
70826;SHT31;58446;41.490;22.098;2023-04-02T11:05:04;19.08;41.96
70826;SHT31;58446;41.490;22.098;2023-04-02T11:07:07;19.18;41.40
70826;SHT31;58446;41.490;22.098;2023-04-02T11:09:41;19.15;39.44
70826;SHT31;58446;41.490;22.098;2023-04-02T11:15:13;19.34;40.59
70826;SHT31;58446;41.490;22.098;2023-04-02T11:17:41;19.38;40.98
70826;SHT31;58446;41.490;22.098;2023-04-02T11:23:19;19.44;41.21
70826;SHT31;58446;41.490;22.098;2023-04-02T11:25:45;19.32;40.40
70826;SHT31;58446;41.490;22.098;2023-04-02T11:30:49;19.21;41.48
70826;SHT31;58446;41.490;22.098;2023-04-02T11:33:37;19.32;40.76
70826;SHT31;58446;41.490;22.098;2023-04-02T11:39:09;19.45;39.05
70826;SHT31;58446;41.490;22.098;2023-04-02T11:42:04;19.48;39.14
70826;SHT31;58446;41.490;22.098;2023-04-02T11:44:30;19.54;40.42
70826;SHT31;58446;41.490;22.098;2023-04-02T11:47:24;19.62;39.74
70826;SHT31;58446;41.490;22.098;2023-04-02T11:52:30;19.62;39.41
70826;SHT31;58446;41.490;22.098;2023-04-02T11:55:03;19.68;39.72
70826;SHT31;58446;41.490;22.098;2023-04-02T12:00:21;19.76;38.86
70826;SHT31;58446;41.490;22.098;2023-04-02T12:05:38;19.47;39.48
70826;SHT31;58446;41.490;22.098;2023-04-02T12:08:47;19.27;39.85
70826;SHT31;58446;41.490;22.098;2023-04-02T12:11:12;19.44;40.32
70826;SHT31;58446;41.490;22.098;2023-04-02T12:16:09;19.62;39.95
70826;SHT31;58446;41.490;22.098;2023-04-02T12:18:43;19.59;38.82
70826;SHT31;58446;41.490;22.098;2023-04-02T12:21:19;19.69;39.30
70826;SHT31;58446;41.490;22.098;2023-04-02T12:23:47;19.79;39.51
70826;SHT31;58446;41.490;22.098;2023-04-02T12:26:42;19.99;38.84
70826;SHT31;58446;41.490;22.098;2023-04-02T12:29:24;19.96;38.66
70826;SHT31;58446;41.490;22.098;2023-04-02T12:31:52;19.76;38.11
70826;SHT31;58446;41.490;22.098;2023-04-02T12:34:20;19.62;38.18
70826;SHT31;58446;41.490;22.098;2023-04-02T12:37:00;19.57;39.02
70826;SHT31;58446;41.490;22.098;2023-04-02T12:39:33;19.61;38.71
70826;SHT31;58446;41.490;22.098;2023-04-02T12:42:01;19.39;39.18
70826;SHT31;58446;41.490;22.098;2023-04-02T12:44:28;19.44;39.76
70826;SHT31;58446;41.490;22.098;2023-04-02T12:46:55;19.34;38.81
70826;SHT31;58446;41.490;22.098;2023-04-02T12:49:39;19.24;39.21
70826;SHT31;58446;41.490;22.098;2023-04-02T12:52:09;19.15;39.76
70826;SHT31;58446;41.490;22.098;2023-04-02T12:54:46;19.27;39.22
70826;SHT31;58446;41.490;22.098;2023-04-02T12:57:33;19.36;39.09
70826;SHT31;58446;41.490;22.098;2023-04-02T13:06:02;19.59;38.49
70826;SHT31;58446;41.490;22.098;2023-04-02T13:08:40;19.65;38.10
70826;SHT31;58446;41.490;22.098;2023-04-02T13:11:06;19.58;37.76
70826;SHT31;58446;41.490;22.098;2023-04-02T13:13:35;19.36;38.09
70826;SHT31;58446;41.490;22.098;2023-04-02T13:18:44;19.24;37.69
70826;SHT31;58446;41.490;22.098;2023-04-02T13:23:45;19.76;38.03
70826;SHT31;58446;41.490;22.098;2023-04-02T13:26:23;20.05;37.78
70826;SHT31;58446;41.490;22.098;2023-04-02T13:29:22;20.12;36.97
70826;SHT31;58446;41.490;22.098;2023-04-02T13:31:49;20.26;37.71
70826;SHT31;58446;41.490;22.098;2023-04-02T13:34:15;20.17;37.22
70826;SHT31;58446;41.490;22.098;2023-04-02T13:36:42;20.12;38.64
70826;SHT31;58446;41.490;22.098;2023-04-02T13:39:08;20.03;37.74
70826;SHT31;58446;41.490;22.098;2023-04-02T13:41:43;19.85;37.61
70826;SHT31;58446;41.490;22.098;2023-04-02T13:44:23;19.96;38.05
70826;SHT31;58446;41.490;22.098;2023-04-02T13:46:50;19.99;37.89
70826;SHT31;58446;41.490;22.098;2023-04-02T13:49:17;20.09;37.87
70826;SHT31;58446;41.490;22.098;2023-04-02T13:51:48;20.20;37.55
70826;SHT31;58446;41.490;22.098;2023-04-02T13:54:26;20.30;37.19
70826;SHT31;58446;41.490;22.098;2023-04-02T13:56:55;20.41;36.92
70826;SHT31;58446;41.490;22.098;2023-04-02T13:59:21;20.29;37.55
70826;SHT31;58446;41.490;22.098;2023-04-02T14:01:48;20.37;37.00
70826;SHT31;58446;41.490;22.098;2023-04-02T14:04:21;20.37;37.34
70826;SHT31;58446;41.490;22.098;2023-04-02T14:17:44;20.69;36.71
70826;SHT31;58446;41.490;22.098;2023-04-02T14:23:13;20.55;36.63
70826;SHT31;58446;41.490;22.098;2023-04-02T14:31:30;20.20;37.29
70826;SHT31;58446;41.490;22.098;2023-04-02T14:37:22;20.37;36.65
70826;SHT31;58446;41.490;22.098;2023-04-02T14:43:21;20.36;36.40
70826;SHT31;58446;41.490;22.098;2023-04-02T14:45:58;20.30;36.51
70826;SHT31;58446;41.490;22.098;2023-04-02T14:54:14;20.64;35.46
70826;SHT31;58446;41.490;22.098;2023-04-02T14:56:56;20.50;35.65
70826;SHT31;58446;41.490;22.098;2023-04-02T15:01:59;20.27;35.89
70826;SHT31;58446;41.490;22.098;2023-04-02T15:04:48;20.33;35.86
70826;SHT31;58446;41.490;22.098;2023-04-02T15:07:21;20.30;36.00
70826;SHT31;58446;41.490;22.098;2023-04-02T15:09:56;20.29;36.19
70826;SHT31;58446;41.490;22.098;2023-04-02T15:12:30;20.29;36.00
70826;SHT31;58446;41.490;22.098;2023-04-02T15:17:45;20.36;36.00
70826;SHT31;58446;41.490;22.098;2023-04-02T15:20:14;20.36;35.95
70826;SHT31;58446;41.490;22.098;2023-04-02T15:23:05;20.29;35.97
70826;SHT31;58446;41.490;22.098;2023-04-02T15:28:31;20.30;36.16
70826;SHT31;58446;41.490;22.098;2023-04-02T15:31:02;20.26;36.03
70826;SHT31;58446;41.490;22.098;2023-04-02T15:33:37;20.20;35.91
70826;SHT31;58446;41.490;22.098;2023-04-02T15:39:27;20.21;35.86
70826;SHT31;58446;41.490;22.098;2023-04-02T15:42:20;20.16;35.87
70826;SHT31;58446;41.490;22.098;2023-04-02T15:45:11;20.14;35.87
70826;SHT31;58446;41.490;22.098;2023-04-02T15:53:00;20.00;36.16
70826;SHT31;58446;41.490;22.098;2023-04-02T15:58:53;19.86;36.63
70826;SHT31;58446;41.490;22.098;2023-04-02T16:01:57;19.83;36.80
70826;SHT31;58446;41.490;22.098;2023-04-02T16:10:11;19.47;37.55
70826;SHT31;58446;41.490;22.098;2023-04-02T16:12:40;19.34;38.06
70826;SHT31;58446;41.490;22.098;2023-04-02T16:17:48;19.24;38.80
70826;SHT31;58446;41.490;22.098;2023-04-02T16:20:23;19.21;39.34
70826;SHT31;58446;41.490;22.098;2023-04-02T16:23:13;19.22;39.20
70826;SHT31;58446;41.490;22.098;2023-04-02T16:25:52;19.14;39.31
70826;SHT31;58446;41.490;22.098;2023-04-02T16:29:07;19.04;39.44
70826;SHT31;58446;41.490;22.098;2023-04-02T16:35:30;19.06;39.83
70826;SHT31;58446;41.490;22.098;2023-04-02T16:37:55;18.96;39.97
70826;SHT31;58446;41.490;22.098;2023-04-02T16:43:32;18.77;40.48
70826;SHT31;58446;41.490;22.098;2023-04-02T16:46:23;18.67;40.73
70826;SHT31;58446;41.490;22.098;2023-04-02T16:49:19;18.63;41.03
70826;SHT31;58446;41.490;22.098;2023-04-02T16:52:16;18.56;41.21
70826;SHT31;58446;41.490;22.098;2023-04-02T17:00:36;18.29;43.04
70826;SHT31;58446;41.490;22.098;2023-04-02T17:06:05;18.09;43.48
70826;SHT31;58446;41.490;22.098;2023-04-02T17:08:42;18.08;43.59
70826;SHT31;58446;41.490;22.098;2023-04-02T17:11:24;18.05;43.17
70826;SHT31;58446;41.490;22.098;2023-04-02T17:14:24;17.91;43.30
70826;SHT31;58446;41.490;22.098;2023-04-02T17:17:01;17.95;43.25
70826;SHT31;58446;41.490;22.098;2023-04-02T17:19:28;18.02;42.99
70826;SHT31;58446;41.490;22.098;2023-04-02T17:22:04;18.08;43.16
70826;SHT31;58446;41.490;22.098;2023-04-02T17:24:38;17.97;43.53
70826;SHT31;58446;41.490;22.098;2023-04-02T17:29:46;18.02;43.70
70826;SHT31;58446;41.490;22.098;2023-04-02T17:32:21;17.95;44.34
70826;SHT31;58446;41.490;22.098;2023-04-02T17:34:48;18.01;44.10
70826;SHT31;58446;41.490;22.098;2023-04-02T17:37:37;17.89;44.73
70826;SHT31;58446;41.490;22.098;2023-04-02T17:42:55;17.22;46.37
70826;SHT31;58446;41.490;22.098;2023-04-02T17:45:50;17.06;46.39
70826;SHT31;58446;41.490;22.098;2023-04-02T17:54:22;16.69;47.24
70826;SHT31;58446;41.490;22.098;2023-04-02T17:57:15;16.68;46.84
70826;SHT31;58446;41.490;22.098;2023-04-02T18:05:28;16.25;47.90
70826;SHT31;58446;41.490;22.098;2023-04-02T18:08:17;16.61;47.97
70826;SHT31;58446;41.490;22.098;2023-04-02T18:16:40;15.98;48.28
70826;SHT31;58446;41.490;22.098;2023-04-02T18:22:17;16.16;49.34
70826;SHT31;58446;41.490;22.098;2023-04-02T18:25:14;16.20;48.46
70826;SHT31;58446;41.490;22.098;2023-04-02T18:33:02;16.32;48.83
70826;SHT31;58446;41.490;22.098;2023-04-02T18:35:34;16.22;49.06
70826;SHT31;58446;41.490;22.098;2023-04-02T18:40:42;15.83;48.93
70826;SHT31;58446;41.490;22.098;2023-04-02T18:48:58;15.69;50.15
70826;SHT31;58446;41.490;22.098;2023-04-02T18:51:27;15.83;49.96
70826;SHT31;58446;41.490;22.098;2023-04-02T18:54:08;15.71;48.36
70826;SHT31;58446;41.490;22.098;2023-04-02T18:56:39;15.71;50.14
70826;SHT31;58446;41.490;22.098;2023-04-02T19:02:41;15.82;48.54
70826;SHT31;58446;41.490;22.098;2023-04-02T19:08:09;14.91;49.02
70826;SHT31;58446;41.490;22.098;2023-04-02T19:10:37;14.47;50.41
70826;SHT31;58446;41.490;22.098;2023-04-02T19:13:17;14.66;50.90
70826;SHT31;58446;41.490;22.098;2023-04-02T19:27:30;15.27;50.11
70826;SHT31;58446;41.490;22.098;2023-04-02T19:33:13;15.19;50.47
70826;SHT31;58446;41.490;22.098;2023-04-02T19:36:33;15.28;50.36
70826;SHT31;58446;41.490;22.098;2023-04-02T19:42:14;14.41;52.48
70826;SHT31;58446;41.490;22.098;2023-04-02T19:44:45;14.46;52.65
70826;SHT31;58446;41.490;22.098;2023-04-02T19:47:13;14.43;52.95
70826;SHT31;58446;41.490;22.098;2023-04-02T19:49:40;14.61;52.68
70826;SHT31;58446;41.490;22.098;2023-04-02T19:52:06;14.71;52.50
70826;SHT31;58446;41.490;22.098;2023-04-02T19:54:31;15.07;51.39
70826;SHT31;58446;41.490;22.098;2023-04-02T19:56:57;15.01;51.71
70826;SHT31;58446;41.490;22.098;2023-04-02T19:59:24;14.78;52.11
70826;SHT31;58446;41.490;22.098;2023-04-02T20:01:50;14.67;52.64
70826;SHT31;58446;41.490;22.098;2023-04-02T20:04:15;14.67;52.51
70826;SHT31;58446;41.490;22.098;2023-04-02T20:06:41;14.81;52.44
70826;SHT31;58446;41.490;22.098;2023-04-02T20:09:07;14.98;52.01
70826;SHT31;58446;41.490;22.098;2023-04-02T20:11:34;14.94;51.98
70826;SHT31;58446;41.490;22.098;2023-04-02T20:14:00;14.95;51.84
70826;SHT31;58446;41.490;22.098;2023-04-02T20:16:26;14.87;52.04
70826;SHT31;58446;41.490;22.098;2023-04-02T20:18:51;14.78;52.13
70826;SHT31;58446;41.490;22.098;2023-04-02T20:21:17;14.81;51.95
70826;SHT31;58446;41.490;22.098;2023-04-02T20:23:43;14.85;51.97
70826;SHT31;58446;41.490;22.098;2023-04-02T20:26:09;14.66;52.33
70826;SHT31;58446;41.490;22.098;2023-04-02T20:28:35;14.60;52.30
70826;SHT31;58446;41.490;22.098;2023-04-02T20:31:09;14.43;52.39
70826;SHT31;58446;41.490;22.098;2023-04-02T20:33:35;14.37;52.81
70826;SHT31;58446;41.490;22.098;2023-04-02T20:36:05;14.32;52.93
70826;SHT31;58446;41.490;22.098;2023-04-02T20:38:34;14.36;52.75
70826;SHT31;58446;41.490;22.098;2023-04-02T20:41:01;14.32;52.59
70826;SHT31;58446;41.490;22.098;2023-04-02T20:43:28;14.29;52.94